Flight Track Log - Related Links

Times and Time Zones

All times are in EDT time to prevent confusion due to time zone crossing. See the LBQ792 flight status page for this flight to view local times or setup timezone preferences in your user account.

Time Position Orientation Groundspeed Altitude Reporting Facility
EDT Latitude Longitude Course Direction KTS MPH feet Rate Location/Type
Sat 12:33:59 AM 40.2986 -79.9025 172° South 138 159 4,700  Level Cleveland Center
Sat 12:34:59 AM 40.2589 -79.9003 178° South 138 159 6,200 1,500 Climbing Cleveland Center
Sat 12:35:59 AM 40.2194 -79.8953 174° South 143 165 7,700 1,438 Climbing Cleveland Center
Sat 12:37:00 AM 40.1733 -79.8903 175° South 155 178 9,100 1,350 Climbing Cleveland Center
Sat 12:37:59 AM 40.1275 -79.8908 181° South 162 186 10,400 1,261 Climbing Cleveland Center
Sat 12:38:00 AM 39.9774 -79.8879 173° South  Level FlightAware Approximate
Sat 12:38:59 AM 40.0775 -79.8858 176° South 173 199 11,600  Level Cleveland Center
Sat 12:39:59 AM 40.0439 -79.8400 134° Southeast 166 191 12,800 1,200 Climbing Cleveland Center
Sat 12:40:59 AM 40.0186 -79.7833 120° Southeast 166 191 14,000 1,050 Climbing Cleveland Center
Sat 12:41:59 AM 39.9911 -79.7242 121° Southeast 178 205 14,900 550 Climbing Cleveland Center
Sat 12:42:59 AM 39.9592 -79.6567 122° Southeast 199 229 15,100 100 Climbing Cleveland Center
Sat 12:43:59 AM 39.9253 -79.5814 120° Southeast 219 252 15,100  Level Cleveland Center
Sat 12:44:59 AM 39.8911 -79.5089 122° Southeast 232 267 15,100  Level Cleveland Center
Sat 12:45:59 AM 39.8572 -79.4336 120° Southeast 232 267 15,100  Level Cleveland Center
Sat 12:47:10 AM 39.8178 -79.3439 120° Southeast 230 265 15,100 -92 Level Washington Center
Sat 12:48:10 AM 39.7847 -79.2667 119° Southeast 235 270 14,900 -98 Descending Washington Center
Sat 12:49:12 AM 39.7517 -79.1892 119° Southeast 235 270 14,900  Level Washington Center
Sat 12:50:12 AM 39.7164 -79.1147 122° Southeast 235 270 14,900  Level Washington Center
Sat 12:51:11 AM 39.6833 -79.0375 119° Southeast 235 270 14,900  Level Washington Center
Sat 12:52:11 AM 39.6519 -78.9606 118° Southeast 235 270 14,900 50 Level Washington Center
Sat 12:53:10 AM 39.6067 -78.8694 123° Southeast 251 289 15,000 50 Climbing Washington Center
Sat 12:54:10 AM 39.5733 -78.7925 119° Southeast 251 289 15,000 -248 Level Washington Center
Sat 12:55:11 AM 39.5378 -78.7156 121° Southeast 251 289 14,500 -800 Descending Washington Center
Sat 12:56:10 AM 39.5003 -78.6333 121° Southeast 261 300 13,400 -1,059 Descending Washington Center
Sat 12:57:10 AM 39.4650 -78.5486 118° Southeast 261 300 12,400 -1,000 Descending Washington Center
Sat 12:58:10 AM 39.4314 -78.4639 117° Southeast 266 306 11,400 -992 Descending Washington Center
Sat 12:59:11 AM 39.4003 -78.3794 115° Southeast 266 306 10,400 -1,000 Descending Washington Center
Sat 01:00:10 AM 39.3772 -78.2925 109° East 260 299 9,400 -958 Descending Washington Center
Sat 01:01:10 AM 39.3519 -78.2083 111° Southeast 260 299 8,500 -950 Descending Washington Center
Sat 01:02:10 AM 39.3286 -78.1272 110° East 248 285 7,500 -1,000 Descending Washington Center
Sat 01:03:10 AM 39.3053 -78.0486 111° Southeast 248 285 6,500 -984 Descending Washington Center
Sat 01:04:12 AM 39.2839 -77.9672 109° East 243 280 5,500 -750 Descending Washington Center
Sat 01:05:10 AM 39.2644 -77.8917 108° East 232 267 5,000 -164 Descending Washington Center
Sat 01:07:15 AM 39.2333 -77.7500 106° East 207 238 5,000 -130 Level Potomac TRACON
Sat 01:08:15 AM 39.2000 -77.6833 123° Southeast 211 243 4,600 -519 Descending Potomac TRACON
Sat 01:08:59 AM 39.1667 -77.6333 131° Southeast 225 259 4,100 -551 Descending Potomac TRACON
Sat 01:09:53 AM 39.1333 -77.6000 142° Southeast 228 262 3,700 -632 Descending Potomac TRACON
Sat 01:10:53 AM 39.0833 -77.5500 142° Southeast 219 252 2,900 -793 Descending Potomac TRACON
Sat 01:11:54 AM 39.0333 -77.5000 142° Southeast 222 255 2,100 -942 Descending Potomac TRACON
Sat 01:12:54 AM 39.0000 -77.4667 142° Southeast 204 235 1,000 -1,100 Descending Potomac TRACON
Sat 01:14:00 AM 38.9474 -77.4599 151° Southeast  Level Estimated
Sat 01:21:00 AM 38.9474 -77.4599 151° Southeast  Level Estimated
Sat 01:22:00 AM 38.9474 -77.4599 151° Southeast  Level Estimated
Sat 01:23:00 AM 38.9474 -77.4599 151° Southeast  Level Estimated
Sat 01:24:00 AM 38.9474 -77.4599 151° Southeast  Level Estimated

Login

Don't have an account? Register now (free) for customized features, flight alerts, and more!